Kezdőlap
METAR-TAF:

METAR-TAF

Repülőterek :

Niamey, Niger

Diori Hamani nemzetközi repülőtér

földrajzi szélesség: 13-29N, földrajzi hosszúság: 002-10E, magasság: 223 m

Jelenlegi meteorológiai megfigyelések

A jelentés 17 perccel ezelõtt készült, 21:00 UTC
Déli szél 5 kt
Hőmérséklet 35°C
Páratartalom 9%
Légköri nyomás 1009 hPa
Látótávolság: 8000 m

METAR: DRRN 212100Z 17005KT 8000 NSC 35/M03 Q1009 NOSIG

Idő: 22:17 (21:17 UTC)

Előrejelzés

A jelentés 4 órával és 17 perccel ezelõtt készült, 17:00 UTC
Az előrejelzés 21-én 18 óra UTC és 22-én 24 óra UTC között érvényes
Kelet-északkeleti szél 8 kt
Látótávolság: 8000 m

TAF: DRRN 211700Z 2118/2224 06008KT 8000 NSC

Meteorológiai megfigyelések és előrejelzések több, mint 4000 repülőtéren (METAR és TAF jelentéseket).

A térképen piros és sárga pontok jelzik az elérhető meteorológiai állomásokat.

Mozgassa az egeret a pont fölött, hogy megjelenjen az állomás neve.

Azután kattintson az időjárási megfigyelések és előrejelzések megtekintéséhez.

A térkép megváltoztatása: kattintson a fekete keresztel jelölt zöld gombra ráközelítéshez, a vonallal jelölt zöld gombra távolításhoz, vagy a zöld nyilakra a szomszédos térképek eléréséhez.


METAR-TAF: